createdAt,value
2022-12-25T00:00:26.447Z,19.37
2022-12-25T00:02:55.510Z,18.33
2022-12-25T00:05:25.019Z,21.37
2022-12-25T00:07:53.545Z,23.77
2022-12-25T00:10:21.890Z,23.10
2022-12-25T00:12:51.590Z,15.40
2022-12-25T00:15:20.087Z,20.53
2022-12-25T00:17:48.346Z,14.20
2022-12-25T00:20:16.635Z,16.37
2022-12-25T00:22:44.856Z,14.60
2022-12-25T00:25:13.283Z,14.10
2022-12-25T00:27:41.568Z,17.93
2022-12-25T00:30:12.244Z,21.40
2022-12-25T00:32:42.151Z,21.17
2022-12-25T00:35:10.954Z,26.40
2022-12-25T00:37:39.293Z,21.27
2022-12-25T00:40:09.005Z,21.83
2022-12-25T00:42:37.366Z,37.37
2022-12-25T00:45:06.829Z,32.03
2022-12-25T00:47:36.510Z,27.73
2022-12-25T00:50:05.452Z,18.60
2022-12-25T00:52:33.924Z,17.63
2022-12-25T00:55:02.251Z,16.70
2022-12-25T00:57:30.545Z,15.80
2022-12-25T00:59:58.908Z,17.67
2022-12-25T01:02:43.502Z,17.90
2022-12-25T01:05:11.908Z,17.93
2022-12-25T01:07:40.129Z,18.10
2022-12-25T01:10:25.192Z,15.63
2022-12-25T01:12:53.714Z,21.00
2022-12-25T01:15:22.255Z,16.43
2022-12-25T01:17:51.923Z,18.93
2022-12-25T01:20:20.674Z,24.03
2022-12-25T01:22:48.951Z,22.23
2022-12-25T01:25:17.318Z,20.93
2022-12-25T01:27:45.576Z,23.07
2022-12-25T01:30:14.233Z,20.23
2022-12-25T01:32:42.479Z,24.60
2022-12-25T01:35:12.518Z,21.77
2022-12-25T01:37:40.821Z,15.43
2022-12-25T01:40:10.255Z,14.60
2022-12-25T01:42:38.883Z,15.63
2022-12-25T01:45:41.495Z,13.40
2022-12-25T01:48:14.217Z,15.60
2022-12-25T01:50:46.652Z,12.60
2022-12-25T01:53:15.539Z,14.80
2022-12-25T01:55:45.982Z,14.43
2022-12-25T01:58:14.757Z,13.47
2022-12-25T02:00:43.141Z,12.50
2022-12-25T02:03:11.523Z,12.13
2022-12-25T02:05:40.384Z,12.07
2022-12-25T02:08:12.891Z,11.27
2022-12-25T02:10:43.162Z,12.13
2022-12-25T02:13:13.860Z,10.70
2022-12-25T02:15:53.802Z,9.60
2022-12-25T02:18:31.398Z,11.60
2022-12-25T02:21:19.113Z,11.93
2022-12-25T02:24:11.005Z,10.43
2022-12-25T02:27:01.638Z,9.87
2022-12-25T02:29:37.274Z,10.10
2022-12-25T02:32:15.455Z,11.07
2022-12-25T02:34:48.031Z,10.73
2022-12-25T02:37:20.890Z,10.07
2022-12-25T02:39:58.908Z,11.60
2022-12-25T02:42:55.393Z,11.03
2022-12-25T02:45:49.256Z,13.70
2022-12-25T02:48:36.744Z,15.87
2022-12-25T02:51:26.040Z,18.53
2022-12-25T02:54:14.824Z,17.77
2022-12-25T02:57:05.451Z,15.13
2022-12-25T02:59:54.316Z,14.83
2022-12-25T03:02:43.593Z,16.23
2022-12-25T03:05:33.490Z,17.40
2022-12-25T03:08:07.702Z,13.93
2022-12-25T03:10:57.587Z,13.93
2022-12-25T03:13:29.900Z,14.33
2022-12-25T03:16:15.743Z,14.23
2022-12-25T03:18:45.693Z,10.90
2022-12-25T03:21:31.332Z,12.90
2022-12-25T03:24:19.695Z,13.43
2022-12-25T03:26:57.481Z,10.23
2022-12-25T03:29:59.503Z,10.57
2022-12-25T03:32:36.653Z,10.10
2022-12-25T03:35:25.691Z,12.37
2022-12-25T03:38:33.121Z,8.70
2022-12-25T03:41:36.801Z,8.83
2022-12-25T03:44:28.747Z,10.57
2022-12-25T03:47:24.121Z,8.60
2022-12-25T03:50:15.752Z,12.10
2022-12-25T03:53:04.475Z,9.83
2022-12-25T03:55:51.821Z,10.70
2022-12-25T03:58:37.964Z,10.03
2022-12-25T04:01:23.879Z,10.37
2022-12-25T04:04:09.740Z,9.63
2022-12-25T04:06:55.805Z,10.53
2022-12-25T04:09:43.089Z,11.37
2022-12-25T04:12:43.677Z,10.03
2022-12-25T04:15:29.703Z,9.33
2022-12-25T04:18:15.393Z,10.70
2022-12-25T04:21:00.864Z,10.60
2022-12-25T04:23:46.625Z,8.80
2022-12-25T04:26:33.819Z,11.60
2022-12-25T04:29:19.646Z,11.30
2022-12-25T04:32:05.315Z,9.57
2022-12-25T04:34:51.254Z,10.57
2022-12-25T04:37:19.685Z,13.07
2022-12-25T04:39:47.904Z,11.43
2022-12-25T04:42:17.661Z,11.37
2022-12-25T04:44:45.967Z,10.63
2022-12-25T04:47:14.519Z,11.07
2022-12-25T04:49:42.816Z,10.50
2022-12-25T04:52:11.071Z,9.80
2022-12-25T04:54:39.699Z,10.43
2022-12-25T04:57:07.998Z,9.80
2022-12-25T04:59:37.641Z,10.53
2022-12-25T05:02:05.907Z,10.83
2022-12-25T05:04:34.309Z,9.90
2022-12-25T05:07:02.583Z,10.13
2022-12-25T05:09:31.279Z,9.30
2022-12-25T05:11:59.715Z,11.10
2022-12-25T05:14:28.079Z,10.27
2022-12-25T05:16:57.732Z,9.70
2022-12-25T05:19:27.156Z,10.83
2022-12-25T05:21:55.691Z,11.67
2022-12-25T05:24:41.676Z,9.47
2022-12-25T05:27:10.012Z,11.13
2022-12-25T05:29:38.396Z,8.93
2022-12-25T05:32:08.159Z,9.47
2022-12-25T05:34:36.416Z,8.23
2022-12-25T05:37:04.759Z,8.77
2022-12-25T05:39:33.125Z,9.87
2022-12-25T05:42:01.421Z,9.23
2022-12-25T05:44:29.757Z,9.17
2022-12-25T05:46:58.051Z,8.53
2022-12-25T05:49:27.833Z,9.03
2022-12-25T05:51:56.075Z,9.83
2022-12-25T05:54:24.389Z,7.90
2022-12-25T05:56:52.690Z,9.10
2022-12-25T05:59:20.936Z,8.47
2022-12-25T06:01:49.327Z,8.60
2022-12-25T06:04:17.821Z,8.33
2022-12-25T06:06:47.544Z,7.47
2022-12-25T06:09:15.880Z,7.80
2022-12-25T06:11:44.146Z,8.00
2022-12-25T06:14:13.214Z,7.23
2022-12-25T06:16:41.646Z,9.13
2022-12-25T06:19:10.172Z,9.73
2022-12-25T06:21:38.443Z,8.53
2022-12-25T06:24:08.582Z,7.10
2022-12-25T06:26:36.963Z,7.47
2022-12-25T06:29:05.317Z,8.73
2022-12-25T06:31:33.780Z,7.37
2022-12-25T06:34:02.081Z,7.90
2022-12-25T06:36:30.438Z,7.23
2022-12-25T06:39:01.528Z,7.07
2022-12-25T06:41:31.880Z,8.63
2022-12-25T06:44:02.196Z,8.60
2022-12-25T06:46:31.436Z,8.13
2022-12-25T06:49:00.539Z,8.17
2022-12-25T06:51:30.380Z,8.23
2022-12-25T06:53:59.430Z,8.10
2022-12-25T06:56:31.071Z,9.07
2022-12-25T06:59:01.138Z,7.57
2022-12-25T07:01:32.072Z,7.27
2022-12-25T07:04:03.268Z,6.83
2022-12-25T07:06:31.630Z,6.10
2022-12-25T07:08:59.913Z,7.70
2022-12-25T07:11:28.216Z,7.13
2022-12-25T07:13:57.822Z,6.03
2022-12-25T07:16:26.215Z,7.00
2022-12-25T07:18:54.533Z,7.03
2022-12-25T07:21:22.944Z,5.90
2022-12-25T07:23:51.557Z,7.90
2022-12-25T07:26:19.877Z,7.67
2022-12-25T07:28:48.223Z,8.53
2022-12-25T07:31:19.843Z,8.00
2022-12-25T07:33:48.311Z,7.80
2022-12-25T07:36:16.618Z,6.67
2022-12-25T07:38:45.305Z,5.63
2022-12-25T07:41:13.887Z,5.80
2022-12-25T07:43:42.709Z,6.43
2022-12-25T07:46:11.270Z,6.00
2022-12-25T07:48:41.531Z,4.67
2022-12-25T07:51:13.910Z,4.60
2022-12-25T07:53:42.505Z,5.57
2022-12-25T07:56:15.017Z,5.40
2022-12-25T07:58:44.045Z,4.90
2022-12-25T08:01:14.986Z,3.70
2022-12-25T08:03:45.600Z,4.77
2022-12-25T08:06:14.012Z,4.40
2022-12-25T08:08:42.275Z,4.13
2022-12-25T08:11:11.359Z,4.57
2022-12-25T08:13:39.821Z,4.63
2022-12-25T08:16:10.894Z,6.47
2022-12-25T08:18:40.254Z,4.87
2022-12-25T08:21:11.655Z,4.63
2022-12-25T08:23:41.898Z,5.70
2022-12-25T08:26:13.569Z,4.83
2022-12-25T08:28:42.312Z,5.57
2022-12-25T08:31:12.395Z,4.77
2022-12-25T08:33:40.735Z,7.00
2022-12-25T08:36:12.204Z,5.47
2022-12-25T08:38:41.229Z,4.33
2022-12-25T08:41:11.037Z,5.30
2022-12-25T08:43:39.467Z,7.00
2022-12-25T08:46:08.759Z,5.30
2022-12-25T08:48:37.587Z,6.53
2022-12-25T08:51:06.323Z,3.90
2022-12-25T08:53:35.984Z,5.17
2022-12-25T08:56:05.467Z,4.90
2022-12-25T08:58:59.142Z,4.70
2022-12-25T09:01:27.535Z,3.23
2022-12-25T09:03:57.065Z,4.30
2022-12-25T09:06:25.353Z,3.97
2022-12-25T09:08:55.021Z,4.57
2022-12-25T09:11:24.130Z,4.70
2022-12-25T09:13:52.466Z,5.53
2022-12-25T09:16:22.980Z,6.47
2022-12-25T09:18:51.923Z,4.83
2022-12-25T09:21:20.953Z,4.90
2022-12-25T09:23:49.493Z,5.40
2022-12-25T09:26:20.544Z,6.17
2022-12-25T09:28:52.314Z,5.17
2022-12-25T09:31:22.191Z,5.60
2022-12-25T09:33:51.053Z,5.73
2022-12-25T09:36:21.281Z,7.20
2022-12-25T09:38:49.670Z,7.63
2022-12-25T09:41:24.122Z,5.17
2022-12-25T09:43:55.655Z,8.97
2022-12-25T09:46:33.179Z,6.80
2022-12-25T09:49:09.379Z,6.63
2022-12-25T09:51:40.850Z,7.03
2022-12-25T09:54:17.587Z,6.50
2022-12-25T09:56:47.272Z,5.60
2022-12-25T09:59:22.843Z,5.70
2022-12-25T10:02:12.106Z,4.93
2022-12-25T10:04:58.354Z,6.60
2022-12-25T10:07:32.340Z,6.13
2022-12-25T10:10:14.964Z,5.80
2022-12-25T10:12:55.228Z,5.53
2022-12-25T10:15:33.265Z,5.93
2022-12-25T10:18:31.257Z,7.03
2022-12-25T10:21:01.779Z,8.60
2022-12-25T10:23:33.697Z,9.97
2022-12-25T10:26:02.516Z,19.30
2022-12-25T10:28:40.271Z,11.50
2022-12-25T10:31:20.279Z,22.00
2022-12-25T10:33:50.514Z,12.87
2022-12-25T10:36:21.267Z,8.80
2022-12-25T10:38:50.276Z,9.07
2022-12-25T10:41:31.634Z,7.33
2022-12-25T10:44:01.585Z,8.57
2022-12-25T10:46:30.687Z,9.00
2022-12-25T10:49:01.317Z,11.23
2022-12-25T10:51:32.538Z,9.67
2022-12-25T10:54:02.552Z,9.67
2022-12-25T10:56:31.246Z,11.67
2022-12-25T10:59:07.407Z,9.73
2022-12-25T11:01:36.399Z,8.03
2022-12-25T11:04:04.843Z,9.13
2022-12-25T11:06:34.594Z,9.43
2022-12-25T11:09:04.033Z,10.07
2022-12-25T11:11:32.864Z,9.40
2022-12-25T11:14:03.573Z,8.80
2022-12-25T11:16:37.029Z,8.80
2022-12-25T11:19:25.791Z,12.27
2022-12-25T11:21:55.510Z,9.70
2022-12-25T11:24:27.302Z,9.77
2022-12-25T11:26:57.571Z,9.67
2022-12-25T11:29:37.140Z,12.57
2022-12-25T11:32:17.300Z,12.00
2022-12-25T11:34:47.358Z,9.33
2022-12-25T11:37:20.172Z,14.30
2022-12-25T11:39:48.910Z,12.00
2022-12-25T11:42:23.389Z,9.90
2022-12-25T11:44:56.020Z,8.80
2022-12-25T11:47:33.364Z,9.07
2022-12-25T11:50:06.500Z,9.00
2022-12-25T11:52:38.363Z,7.27
2022-12-25T11:55:19.210Z,8.23
2022-12-25T11:57:52.517Z,9.30
2022-12-25T12:00:21.649Z,8.93
2022-12-25T12:02:58.748Z,8.37
2022-12-25T12:05:35.267Z,7.70
2022-12-25T12:08:05.579Z,7.40
2022-12-25T12:10:43.659Z,6.57
2022-12-25T12:13:27.717Z,7.03
2022-12-25T12:15:57.702Z,6.33
2022-12-25T12:18:33.974Z,6.20
2022-12-25T12:21:04.992Z,6.40
2022-12-25T12:23:36.922Z,7.27
2022-12-25T12:26:05.957Z,7.57
2022-12-25T12:28:45.703Z,6.77
2022-12-25T12:31:14.900Z,10.53
2022-12-25T12:33:53.023Z,10.53
2022-12-25T12:40:37.632Z,18.77
2022-12-25T12:43:08.258Z,24.70
2022-12-25T12:45:38.689Z,19.97
2022-12-25T12:48:16.840Z,11.87
2022-12-25T12:50:47.642Z,13.90
2022-12-25T12:53:30.513Z,10.80
2022-12-25T12:56:11.173Z,8.53
2022-12-25T12:58:45.106Z,17.07
2022-12-25T13:01:25.060Z,15.40
2022-12-25T13:04:16.480Z,10.30
2022-12-25T13:06:51.981Z,16.47
2022-12-25T13:09:37.125Z,12.93
2022-12-25T13:12:08.255Z,8.77
2022-12-25T13:14:37.963Z,6.70
2022-12-25T13:17:08.787Z,10.80
2022-12-25T13:19:53.232Z,10.83
2022-12-25T13:22:26.762Z,10.47
2022-12-25T13:24:59.775Z,11.20
2022-12-25T13:27:31.160Z,11.67
2022-12-25T13:29:59.771Z,13.27
2022-12-25T13:32:31.352Z,9.20
2022-12-25T13:35:00.577Z,10.13
2022-12-25T13:37:32.312Z,9.67
2022-12-25T13:40:02.175Z,7.40
2022-12-25T13:42:32.218Z,6.73
2022-12-25T13:45:03.295Z,7.57
2022-12-25T13:47:33.869Z,7.37
2022-12-25T13:50:15.871Z,8.93
2022-12-25T13:52:45.519Z,10.33
2022-12-25T13:55:15.526Z,8.80
2022-12-25T13:57:48.646Z,7.20
2022-12-25T14:00:23.140Z,9.87
2022-12-25T14:02:52.696Z,6.10
2022-12-25T14:05:32.387Z,5.80
2022-12-25T14:08:20.377Z,4.20
2022-12-25T14:10:52.195Z,6.13
2022-12-25T14:13:23.451Z,5.50
2022-12-25T14:15:53.414Z,5.53
2022-12-25T14:18:24.129Z,6.20
2022-12-25T14:21:02.406Z,7.30
2022-12-25T14:23:42.475Z,7.13
2022-12-25T14:26:17.073Z,5.83
2022-12-25T14:28:49.585Z,5.77
2022-12-25T14:31:18.188Z,4.73
2022-12-25T14:33:48.020Z,5.40
2022-12-25T14:36:17.087Z,6.90
2022-12-25T14:38:58.062Z,5.67
2022-12-25T14:41:34.299Z,6.33
2022-12-25T14:44:06.290Z,7.47
2022-12-25T14:46:35.516Z,6.67
2022-12-25T14:49:06.696Z,5.30
2022-12-25T14:51:39.715Z,5.20
2022-12-25T14:54:19.280Z,6.30
2022-12-25T14:56:49.451Z,5.00
2022-12-25T14:59:20.270Z,4.90
2022-12-25T15:01:52.924Z,5.00
2022-12-25T15:04:22.341Z,6.87
2022-12-25T15:11:41.936Z,8.10
2022-12-25T15:14:10.269Z,10.03
2022-12-25T15:16:42.870Z,8.13
2022-12-25T15:19:14.606Z,10.13
2022-12-25T15:21:44.477Z,8.07
2022-12-25T15:24:14.086Z,8.50
2022-12-25T15:26:44.194Z,10.17
2022-12-25T15:29:12.523Z,8.23
2022-12-25T15:31:42.037Z,7.40
2022-12-25T15:34:17.807Z,13.13
2022-12-25T15:36:46.160Z,9.03
2022-12-25T15:39:14.501Z,11.70
2022-12-25T15:42:01.471Z,12.87
2022-12-25T15:44:29.884Z,9.30
2022-12-25T15:46:58.195Z,6.77
2022-12-25T15:49:26.517Z,5.03
2022-12-25T15:51:54.843Z,8.53
2022-12-25T15:54:23.128Z,6.43
2022-12-25T15:57:08.259Z,6.80
2022-12-25T15:59:36.570Z,5.93
2022-12-25T16:02:14.265Z,4.80
2022-12-25T16:04:42.869Z,4.00
2022-12-25T16:07:15.655Z,2.70
2022-12-25T16:09:44.540Z,3.73
2022-12-25T16:12:14.355Z,4.83
2022-12-25T16:14:42.791Z,3.90
2022-12-25T16:17:13.990Z,2.80
2022-12-25T16:19:42.825Z,3.70
2022-12-25T16:22:15.190Z,3.63
2022-12-25T16:24:43.546Z,4.17
2022-12-25T16:27:13.173Z,5.00
2022-12-25T16:29:42.299Z,3.63
2022-12-25T16:32:11.679Z,3.37
2022-12-25T16:34:40.785Z,6.23
2022-12-25T16:37:09.316Z,3.53
2022-12-25T16:39:38.705Z,1.90
2022-12-25T16:42:07.274Z,5.87
2022-12-25T16:44:38.592Z,4.07
2022-12-25T16:47:07.027Z,6.57
2022-12-25T16:49:35.348Z,4.13
2022-12-25T16:52:03.891Z,2.97
2022-12-25T16:54:32.161Z,2.00
2022-12-25T16:57:00.525Z,3.60
2022-12-25T16:59:29.779Z,4.20
2022-12-25T17:01:59.541Z,3.63
2022-12-25T17:04:29.353Z,5.10
2022-12-25T17:06:58.248Z,3.27
2022-12-25T17:09:26.554Z,8.70
2022-12-25T17:11:54.875Z,9.07
2022-12-25T17:14:23.200Z,3.77
2022-12-25T17:16:51.656Z,3.53
2022-12-25T17:19:23.746Z,1.77
2022-12-25T17:21:52.491Z,3.80
2022-12-25T17:24:20.777Z,2.03
2022-12-25T17:26:49.867Z,4.00
2022-12-25T17:29:22.030Z,2.97
2022-12-25T17:31:51.261Z,7.17
2022-12-25T17:34:21.163Z,5.10
2022-12-25T17:36:49.508Z,8.50
2022-12-25T17:39:17.785Z,7.27
2022-12-25T17:41:46.371Z,10.47
2022-12-25T17:44:14.607Z,8.43
2022-12-25T17:46:43.086Z,10.97
2022-12-25T17:49:16.742Z,7.93
2022-12-25T17:51:47.282Z,9.80
2022-12-25T17:54:15.724Z,4.63
2022-12-25T17:56:44.013Z,4.73
2022-12-25T17:59:18.245Z,5.70
2022-12-25T18:01:49.144Z,3.93
2022-12-25T18:04:17.752Z,5.90
2022-12-25T18:06:47.656Z,7.23
2022-12-25T18:09:15.992Z,8.77
2022-12-25T18:11:44.555Z,3.43
2022-12-25T18:14:14.971Z,3.90
2022-12-25T18:16:45.358Z,4.97
2022-12-25T18:19:15.325Z,3.90
2022-12-25T18:21:43.671Z,3.87
2022-12-25T18:24:13.571Z,3.43
2022-12-25T18:26:42.258Z,5.93
2022-12-25T18:29:10.548Z,3.97
2022-12-25T18:31:38.860Z,5.73
2022-12-25T18:34:07.209Z,4.07
2022-12-25T18:36:36.901Z,6.67
2022-12-25T18:39:05.738Z,5.47
2022-12-25T18:41:56.193Z,5.07
2022-12-25T18:48:30.880Z,6.33
2022-12-25T18:51:01.187Z,5.93
2022-12-25T18:53:31.025Z,6.30
2022-12-25T18:56:06.244Z,5.77
2022-12-25T19:01:22.704Z,5.77
2022-12-25T19:03:52.595Z,5.43
2022-12-25T19:06:25.244Z,5.13
2022-12-25T19:08:53.939Z,4.13
2022-12-25T19:11:22.920Z,7.77
2022-12-25T19:13:52.607Z,3.80
2022-12-25T19:16:21.010Z,5.30
2022-12-25T19:18:49.315Z,6.37
2022-12-25T19:21:17.609Z,5.03
2022-12-25T19:23:46.000Z,5.33
2022-12-25T19:26:14.311Z,6.13
2022-12-25T19:28:43.049Z,4.23
2022-12-25T19:31:12.777Z,3.23
2022-12-25T19:33:42.610Z,8.07
2022-12-25T19:36:13.745Z,4.57
2022-12-25T19:38:42.762Z,6.17
2022-12-25T19:41:13.301Z,4.50
2022-12-25T19:43:43.512Z,5.63
2022-12-25T19:46:18.366Z,5.87
2022-12-25T19:48:46.996Z,6.50
2022-12-25T19:51:21.642Z,9.07
2022-12-25T19:53:50.957Z,5.50
2022-12-25T19:56:19.550Z,5.87
2022-12-25T19:58:47.849Z,6.53
2022-12-25T20:01:19.072Z,6.13
2022-12-25T20:03:48.110Z,4.63
2022-12-25T20:06:19.858Z,4.13
2022-12-25T20:08:49.415Z,6.13
2022-12-25T20:11:18.475Z,5.80
2022-12-25T20:13:47.154Z,6.33
2022-12-25T20:16:17.160Z,5.17
2022-12-25T20:18:45.436Z,5.70
2022-12-25T20:21:15.417Z,4.60
2022-12-25T20:23:45.105Z,6.77
2022-12-25T20:26:14.649Z,6.53
2022-12-25T20:28:43.818Z,6.20
2022-12-25T20:31:21.369Z,7.20
2022-12-25T20:33:50.851Z,4.53
2022-12-25T20:36:19.427Z,6.87
2022-12-25T20:38:47.753Z,6.53
2022-12-25T20:41:27.495Z,5.10
2022-12-25T20:43:57.191Z,5.30
2022-12-25T20:46:27.478Z,5.80
2022-12-25T20:48:55.963Z,4.97
2022-12-25T20:51:26.505Z,5.83
2022-12-25T20:53:55.646Z,5.30
2022-12-25T20:56:25.575Z,4.53
2022-12-25T20:58:55.713Z,5.37
2022-12-25T21:01:24.364Z,6.97
2022-12-25T21:03:54.640Z,5.87
2022-12-25T21:06:23.703Z,6.97
2022-12-25T21:08:51.980Z,4.53
2022-12-25T21:11:21.293Z,5.50
2022-12-25T21:13:49.676Z,5.77
2022-12-25T21:16:20.638Z,5.97
2022-12-25T21:18:49.842Z,4.93
2022-12-25T21:21:20.040Z,5.40
2022-12-25T21:23:48.803Z,6.50
2022-12-25T21:26:19.485Z,8.13
2022-12-25T21:28:48.288Z,4.50
2022-12-25T21:31:16.699Z,5.03
2022-12-25T21:33:53.017Z,5.17
2022-12-25T21:36:26.730Z,5.20
2022-12-25T21:38:57.568Z,6.77
2022-12-25T21:41:27.038Z,8.20
2022-12-25T21:43:56.049Z,10.60
2022-12-25T21:46:24.482Z,10.53
2022-12-25T21:48:52.963Z,15.23
2022-12-25T21:51:41.641Z,20.10
2022-12-25T21:54:11.361Z,19.13
2022-12-25T21:56:44.780Z,17.03
2022-12-25T21:59:15.440Z,15.63
2022-12-25T22:01:44.425Z,25.67
2022-12-25T22:04:14.466Z,35.10
2022-12-25T22:07:02.153Z,40.83
2022-12-25T22:09:31.029Z,28.77
2022-12-25T22:12:16.511Z,19.33
2022-12-25T22:14:56.799Z,14.10
2022-12-25T22:17:45.309Z,12.63
2022-12-25T22:20:16.013Z,9.20
2022-12-25T22:22:46.488Z,11.23
2022-12-25T22:25:15.941Z,8.03
2022-12-25T22:27:45.921Z,7.27
2022-12-25T22:30:17.832Z,13.33
2022-12-25T22:32:46.374Z,12.90
2022-12-25T22:35:16.078Z,10.17
2022-12-25T22:37:46.460Z,7.90
2022-12-25T22:40:16.895Z,7.27
2022-12-25T22:42:45.198Z,6.63
2022-12-25T22:45:13.778Z,7.57
2022-12-25T22:47:42.156Z,6.93
2022-12-25T22:50:11.905Z,5.73
2022-12-25T22:52:40.263Z,8.27
2022-12-25T22:55:11.384Z,7.33
2022-12-25T22:57:39.704Z,6.83
2022-12-25T23:00:09.836Z,5.90
2022-12-25T23:02:38.457Z,8.00
2022-12-25T23:05:07.553Z,7.00
2022-12-25T23:07:35.889Z,4.90
2022-12-25T23:10:05.045Z,5.43
2022-12-25T23:12:52.044Z,8.57
2022-12-25T23:15:20.345Z,6.97
2022-12-25T23:18:06.182Z,8.70
2022-12-25T23:20:52.004Z,9.73
2022-12-25T23:23:37.616Z,5.57
2022-12-25T23:26:09.739Z,8.27
2022-12-25T23:28:58.682Z,7.50
2022-12-25T23:31:30.115Z,7.27
2022-12-25T23:34:00.680Z,7.27
2022-12-25T23:36:29.245Z,5.83
2022-12-25T23:39:01.618Z,7.63
2022-12-25T23:41:33.881Z,8.30
2022-12-25T23:44:03.507Z,8.40
2022-12-25T23:46:31.917Z,8.93
2022-12-25T23:49:00.324Z,9.13
2022-12-25T23:51:28.661Z,9.20
2022-12-25T23:53:57.035Z,7.23
2022-12-25T23:56:25.460Z,9.77
2022-12-25T23:58:53.766Z,11.43
